createdAt,value
2022-12-09T00:04:01.552Z,4.24
2022-12-09T00:09:06.982Z,4.06
2022-12-09T00:14:10.191Z,3.06
2022-12-09T00:19:14.635Z,3.94
2022-12-09T00:24:17.126Z,4.27
2022-12-09T00:29:22.900Z,4.04
2022-12-09T00:34:27.014Z,4.17
2022-12-09T00:39:29.852Z,4.40
2022-12-09T00:44:32.459Z,4.42
2022-12-09T00:49:36.359Z,3.53
2022-12-09T00:54:38.929Z,3.13
2022-12-09T00:59:41.449Z,3.34
2022-12-09T01:04:45.438Z,3.81
2022-12-09T01:09:48.349Z,4.41
2022-12-09T01:14:51.028Z,4.62
2022-12-09T01:19:55.130Z,4.62
2022-12-09T01:24:57.579Z,4.63
2022-12-09T01:30:00.009Z,4.51
2022-12-09T01:35:05.150Z,4.59
2022-12-09T01:40:10.945Z,4.52
2022-12-09T01:45:34.644Z,3.71
2022-12-09T01:50:39.511Z,2.34
2022-12-09T01:55:42.240Z,3.36
2022-12-09T02:00:45.750Z,4.16
2022-12-09T02:05:49.892Z,4.29
2022-12-09T02:10:57.076Z,4.53
2022-12-09T02:16:02.480Z,4.72
2022-12-09T02:21:10.019Z,4.71
2022-12-09T02:26:17.596Z,4.48
2022-12-09T02:31:26.466Z,4.11
2022-12-09T02:36:35.733Z,4.04
2022-12-09T02:41:40.692Z,4.52
2022-12-09T02:46:43.692Z,4.40
2022-12-09T02:51:48.834Z,4.65
2022-12-09T02:56:53.543Z,4.61
2022-12-09T03:02:01.811Z,4.46
2022-12-09T03:07:08.866Z,2.76
2022-12-09T03:12:12.449Z,3.41
2022-12-09T03:17:17.558Z,3.13
2022-12-09T03:22:24.989Z,2.46
2022-12-09T03:27:29.726Z,3.19
2022-12-09T03:32:33.170Z,3.54
2022-12-09T03:37:39.122Z,2.46
2022-12-09T03:42:45.465Z,2.82
2022-12-09T03:47:48.278Z,3.76
2022-12-09T03:52:57.495Z,4.22
2022-12-09T03:58:01.411Z,3.71
2022-12-09T04:03:04.194Z,4.22
2022-12-09T04:08:08.649Z,4.42
2022-12-09T04:13:11.285Z,4.49
2022-12-09T04:18:13.920Z,4.20
2022-12-09T04:23:18.167Z,4.50
2022-12-09T04:28:20.644Z,4.50
2022-12-09T04:33:23.081Z,4.39
2022-12-09T04:38:26.826Z,3.24
2022-12-09T04:43:29.814Z,3.88
2022-12-09T04:48:32.889Z,3.23
2022-12-09T04:53:36.979Z,3.11
2022-12-09T04:58:39.776Z,1.71
2022-12-09T05:03:42.734Z,2.59
2022-12-09T05:08:47.173Z,3.29
2022-12-09T05:13:49.775Z,3.41
2022-12-09T05:18:52.482Z,2.24
2022-12-09T05:23:56.868Z,2.64
2022-12-09T05:28:59.599Z,3.80
2022-12-09T05:34:02.378Z,4.03
2022-12-09T05:39:06.817Z,4.01
2022-12-09T05:44:10.626Z,4.14
2022-12-09T05:49:13.600Z,3.72
2022-12-09T05:54:17.938Z,3.86
2022-12-09T05:59:20.577Z,4.27
2022-12-09T06:04:23.659Z,4.44
2022-12-09T06:09:27.876Z,4.12
2022-12-09T06:14:30.446Z,4.31
2022-12-09T06:19:33.392Z,4.33
2022-12-09T06:24:37.717Z,4.22
2022-12-09T06:29:40.253Z,3.88
2022-12-09T06:34:43.176Z,4.49
2022-12-09T06:39:47.926Z,4.61
2022-12-09T06:44:50.587Z,4.69
2022-12-09T06:49:53.325Z,4.64
2022-12-09T06:54:57.601Z,4.27
2022-12-09T07:00:01.941Z,3.55
2022-12-09T07:05:05.656Z,2.98
2022-12-09T07:10:11.427Z,1.80
2022-12-09T07:15:14.530Z,2.81
2022-12-09T07:20:17.987Z,2.60
2022-12-09T07:25:22.097Z,3.92
2022-12-09T07:30:25.013Z,2.26
2022-12-09T07:35:27.610Z,3.90
2022-12-09T07:40:31.520Z,4.33
2022-12-09T07:45:34.985Z,4.23
2022-12-09T07:50:37.707Z,4.61
2022-12-09T07:55:41.955Z,4.58
2022-12-09T08:00:44.675Z,4.76
2022-12-09T08:05:47.917Z,4.67
2022-12-09T08:10:54.936Z,4.26
2022-12-09T08:16:02.586Z,4.58
2022-12-09T08:21:06.779Z,4.97
2022-12-09T08:26:11.432Z,3.25
2022-12-09T08:31:14.852Z,4.10
2022-12-09T08:36:19.298Z,4.88
2022-12-09T08:41:35.359Z,4.85
2022-12-09T08:46:39.945Z,3.10
2022-12-09T08:51:46.206Z,3.51
2022-12-09T08:56:51.496Z,2.41
2022-12-09T09:01:54.515Z,3.93
2022-12-09T09:06:57.309Z,3.60
2022-12-09T09:12:01.945Z,3.81
2022-12-09T09:17:04.754Z,3.54
2022-12-09T09:22:08.024Z,3.71
2022-12-09T09:27:12.283Z,3.65
2022-12-09T09:32:14.984Z,2.89
2022-12-09T09:37:17.845Z,4.60
2022-12-09T09:42:25.361Z,3.32
2022-12-09T09:47:37.784Z,3.89
2022-12-09T09:52:43.987Z,3.48
2022-12-09T09:57:50.596Z,2.55
2022-12-09T10:02:59.531Z,2.68
2022-12-09T10:08:17.479Z,2.39
2022-12-09T10:13:28.387Z,3.20
2022-12-09T10:18:35.320Z,2.76
2022-12-09T10:23:38.037Z,3.06
2022-12-09T10:28:45.013Z,3.57
2022-12-09T10:33:48.034Z,3.17
2022-12-09T10:38:50.929Z,3.15
2022-12-09T10:44:14.845Z,2.24
2022-12-09T10:49:21.776Z,2.54
2022-12-09T10:54:30.449Z,3.15
2022-12-09T10:59:33.412Z,3.28
2022-12-09T11:04:39.391Z,3.54
2022-12-09T11:09:44.046Z,3.61
2022-12-09T11:14:51.878Z,3.32
2022-12-09T11:19:57.173Z,3.63
2022-12-09T11:25:12.994Z,3.56
2022-12-09T11:30:18.098Z,3.69
2022-12-09T11:35:26.806Z,3.49
2022-12-09T11:40:30.341Z,3.40
2022-12-09T11:45:36.082Z,3.54
2022-12-09T11:50:42.598Z,3.68
2022-12-09T11:55:47.039Z,3.18
2022-12-09T12:00:51.755Z,3.25
2022-12-09T12:05:55.994Z,3.68
2022-12-09T12:11:01.647Z,4.07
2022-12-09T12:16:08.030Z,3.50
2022-12-09T12:21:19.679Z,3.74
2022-12-09T12:26:25.279Z,3.38
2022-12-09T12:31:33.915Z,3.55
2022-12-09T12:36:43.613Z,3.72
2022-12-09T12:41:49.837Z,3.17
2022-12-09T12:46:57.240Z,3.51
2022-12-09T12:52:09.982Z,3.92
2022-12-09T12:57:21.846Z,3.55
2022-12-09T13:02:33.219Z,3.12
2022-12-09T13:07:42.557Z,2.73
2022-12-09T13:12:58.480Z,3.32
2022-12-09T13:18:02.827Z,3.47
2022-12-09T13:23:13.640Z,3.41
2022-12-09T13:28:19.082Z,3.77
2022-12-09T13:33:29.587Z,2.98
2022-12-09T13:38:39.521Z,3.69
2022-12-09T13:43:42.227Z,3.98
2022-12-09T13:48:48.812Z,3.91
2022-12-09T13:53:54.581Z,4.08
2022-12-09T13:59:17.937Z,3.90
2022-12-09T14:04:22.235Z,3.82
2022-12-09T14:09:29.956Z,3.76
2022-12-09T14:14:56.489Z,3.32
2022-12-09T14:20:02.580Z,4.09
2022-12-09T14:25:23.783Z,3.94
2022-12-09T14:30:44.952Z,4.10
2022-12-09T14:35:50.471Z,3.83
2022-12-09T14:40:57.256Z,3.39
2022-12-09T14:46:01.853Z,2.81
2022-12-09T14:51:15.844Z,2.54
2022-12-09T14:56:19.575Z,2.85
2022-12-09T15:01:22.062Z,2.95
2022-12-09T15:06:27.105Z,2.92
2022-12-09T15:11:31.471Z,3.25
2022-12-09T15:16:34.013Z,3.34
2022-12-09T15:21:37.808Z,3.09
2022-12-09T15:26:40.298Z,3.49
2022-12-09T15:31:48.162Z,3.06
2022-12-09T15:36:53.771Z,2.55
2022-12-09T15:42:08.299Z,2.91
2022-12-09T15:47:13.732Z,3.19
2022-12-09T15:52:18.941Z,2.45
2022-12-09T15:57:23.889Z,2.33
2022-12-09T16:02:28.268Z,2.71
2022-12-09T16:07:33.752Z,3.03
2022-12-09T16:12:37.545Z,3.63
2022-12-09T16:17:52.475Z,3.75
2022-12-09T16:22:56.319Z,2.94
2022-12-09T16:28:00.129Z,3.03
2022-12-09T16:33:03.846Z,2.93
2022-12-09T16:38:18.000Z,3.61
2022-12-09T16:43:21.495Z,3.32
2022-12-09T16:48:25.112Z,2.75
2022-12-09T16:53:31.005Z,2.90
2022-12-09T16:58:36.274Z,2.34
2022-12-09T17:03:40.970Z,2.78
2022-12-09T17:08:44.877Z,2.50
2022-12-09T17:13:48.182Z,3.17
2022-12-09T17:18:50.966Z,3.08
2022-12-09T17:23:56.821Z,3.30
2022-12-09T17:29:01.810Z,3.08
2022-12-09T17:34:04.668Z,2.89
2022-12-09T17:39:08.469Z,2.90
2022-12-09T17:44:10.900Z,3.30
2022-12-09T17:49:13.285Z,3.23
2022-12-09T17:54:17.019Z,3.40
2022-12-09T17:59:19.459Z,3.28
2022-12-09T18:04:21.848Z,3.68
2022-12-09T18:09:25.728Z,3.62
2022-12-09T18:14:28.392Z,2.75
2022-12-09T18:19:30.961Z,3.30
2022-12-09T18:24:34.861Z,3.69
2022-12-09T18:29:37.384Z,4.13
2022-12-09T18:34:39.943Z,3.84
2022-12-09T18:39:43.765Z,3.71
2022-12-09T18:44:46.255Z,3.58
2022-12-09T18:49:48.749Z,4.15
2022-12-09T18:54:52.588Z,4.05
2022-12-09T18:59:55.001Z,3.30
2022-12-09T19:04:57.468Z,3.41
2022-12-09T19:10:01.199Z,3.75
2022-12-09T19:15:03.660Z,3.15
2022-12-09T19:20:06.946Z,2.89
2022-12-09T19:25:10.911Z,2.74
2022-12-09T19:30:14.339Z,2.44
2022-12-09T19:35:16.916Z,2.62
2022-12-09T19:40:20.764Z,2.80
2022-12-09T19:45:23.180Z,3.21
2022-12-09T19:50:25.653Z,2.57
2022-12-09T19:55:29.405Z,3.22
2022-12-09T20:00:35.613Z,3.51
2022-12-09T20:05:47.757Z,3.28
2022-12-09T20:10:51.806Z,3.01
2022-12-09T20:15:54.298Z,3.12
2022-12-09T20:20:56.928Z,3.37
2022-12-09T20:26:05.304Z,3.39
2022-12-09T20:31:08.893Z,3.42
2022-12-09T20:36:19.801Z,3.23
2022-12-09T20:41:24.190Z,3.42
2022-12-09T20:46:27.407Z,3.08
2022-12-09T20:51:31.057Z,3.63
2022-12-09T20:56:35.455Z,3.55
2022-12-09T21:01:38.557Z,3.04
2022-12-09T21:06:42.704Z,2.88
2022-12-09T21:11:46.962Z,2.99
2022-12-09T21:16:50.982Z,2.77
2022-12-09T21:21:54.327Z,2.23
2022-12-09T21:26:58.159Z,2.58
2022-12-09T21:32:01.354Z,3.02
2022-12-09T21:37:03.938Z,2.38
2022-12-09T21:42:09.322Z,2.70
2022-12-09T21:47:11.757Z,2.26
2022-12-09T21:52:14.155Z,2.88
2022-12-09T21:57:17.987Z,2.51
2022-12-09T22:02:20.455Z,2.54
2022-12-09T22:07:22.952Z,2.42
2022-12-09T22:12:26.952Z,2.68
2022-12-09T22:17:29.338Z,2.75
2022-12-09T22:22:31.784Z,3.22
2022-12-09T22:27:35.736Z,3.44
2022-12-09T22:32:41.606Z,3.38
2022-12-09T22:37:45.938Z,2.75
2022-12-09T22:42:50.137Z,2.71
2022-12-09T22:47:54.638Z,2.42
2022-12-09T22:52:57.127Z,2.70
2022-12-09T22:58:00.873Z,2.12
2022-12-09T23:03:03.491Z,2.06
2022-12-09T23:08:06.471Z,2.42
2022-12-09T23:13:10.749Z,2.72
2022-12-09T23:18:13.202Z,3.03
2022-12-09T23:23:15.590Z,2.75
2022-12-09T23:28:19.339Z,2.03
2022-12-09T23:33:21.758Z,1.96
2022-12-09T23:38:24.237Z,2.47
2022-12-09T23:43:30.939Z,2.37
2022-12-09T23:48:33.443Z,1.75
2022-12-09T23:53:46.916Z,2.63
2022-12-09T23:58:53.767Z,2.16
